sensor_id;sensor_type;location;lat;lon;timestamp;P1;durP1;ratioP1;P2;durP2;ratioP2
77085;SDS011;66014;53.134;18.006;2023-08-07T00:00:42;2.70;;;0.90;;
77085;SDS011;66014;53.134;18.006;2023-08-07T00:03:28;1.80;;;0.90;;
77085;SDS011;66014;53.134;18.006;2023-08-07T00:05:54;3.40;;;0.70;;
77085;SDS011;66014;53.134;18.006;2023-08-07T00:08:22;0.90;;;0.50;;
77085;SDS011;66014;53.134;18.006;2023-08-07T00:10:48;1.80;;;0.80;;
77085;SDS011;66014;53.134;18.006;2023-08-07T00:13:14;2.90;;;0.80;;
77085;SDS011;66014;53.134;18.006;2023-08-07T00:15:40;1.80;;;0.80;;
77085;SDS011;66014;53.134;18.006;2023-08-07T00:18:06;1.80;;;0.90;;
77085;SDS011;66014;53.134;18.006;2023-08-07T00:20:32;1.10;;;0.70;;
77085;SDS011;66014;53.134;18.006;2023-08-07T00:22:58;1.60;;;0.80;;
77085;SDS011;66014;53.134;18.006;2023-08-07T00:25:24;2.30;;;1.10;;
77085;SDS011;66014;53.134;18.006;2023-08-07T00:27:49;1.00;;;0.60;;
77085;SDS011;66014;53.134;18.006;2023-08-07T00:30:15;2.10;;;0.70;;
77085;SDS011;66014;53.134;18.006;2023-08-07T00:32:41;1.70;;;0.90;;
77085;SDS011;66014;53.134;18.006;2023-08-07T00:35:07;4.60;;;0.90;;
77085;SDS011;66014;53.134;18.006;2023-08-07T00:37:33;2.00;;;0.90;;
77085;SDS011;66014;53.134;18.006;2023-08-07T00:39:59;2.10;;;1.00;;
77085;SDS011;66014;53.134;18.006;2023-08-07T00:42:25;1.90;;;0.90;;
77085;SDS011;66014;53.134;18.006;2023-08-07T00:44:51;1.50;;;0.90;;
77085;SDS011;66014;53.134;18.006;2023-08-07T00:47:18;2.70;;;1.10;;
77085;SDS011;66014;53.134;18.006;2023-08-07T00:49:44;1.80;;;0.90;;
77085;SDS011;66014;53.134;18.006;2023-08-07T00:52:12;2.10;;;1.10;;
77085;SDS011;66014;53.134;18.006;2023-08-07T00:54:51;1.50;;;0.90;;
77085;SDS011;66014;53.134;18.006;2023-08-07T00:58:20;2.10;;;0.70;;
77085;SDS011;66014;53.134;18.006;2023-08-07T01:21:22;1.90;;;0.90;;
77085;SDS011;66014;53.134;18.006;2023-08-07T01:23:49;1.80;;;0.70;;
77085;SDS011;66014;53.134;18.006;2023-08-07T01:26:16;3.10;;;0.90;;
77085;SDS011;66014;53.134;18.006;2023-08-07T01:28:50;1.30;;;0.80;;
77085;SDS011;66014;53.134;18.006;2023-08-07T01:31:27;1.80;;;0.70;;
77085;SDS011;66014;53.134;18.006;2023-08-07T01:33:57;1.40;;;0.70;;
77085;SDS011;66014;53.134;18.006;2023-08-07T01:36:28;2.40;;;0.80;;
77085;SDS011;66014;53.134;18.006;2023-08-07T01:38:59;1.20;;;0.60;;
77085;SDS011;66014;53.134;18.006;2023-08-07T01:41:28;2.00;;;0.70;;
77085;SDS011;66014;53.134;18.006;2023-08-07T01:43:55;1.60;;;0.50;;
77085;SDS011;66014;53.134;18.006;2023-08-07T01:46:21;1.00;;;0.50;;
77085;SDS011;66014;53.134;18.006;2023-08-07T01:48:48;1.80;;;0.70;;
77085;SDS011;66014;53.134;18.006;2023-08-07T01:51:14;1.70;;;0.90;;
77085;SDS011;66014;53.134;18.006;2023-08-07T01:53:41;0.80;;;0.50;;
77085;SDS011;66014;53.134;18.006;2023-08-07T01:56:08;0.90;;;0.50;;
77085;SDS011;66014;53.134;18.006;2023-08-07T01:58:35;1.20;;;0.50;;
77085;SDS011;66014;53.134;18.006;2023-08-07T02:01:01;1.20;;;0.50;;
77085;SDS011;66014;53.134;18.006;2023-08-07T02:03:28;1.40;;;0.60;;
77085;SDS011;66014;53.134;18.006;2023-08-07T02:05:54;1.20;;;0.60;;
77085;SDS011;66014;53.134;18.006;2023-08-07T02:08:21;1.10;;;0.50;;
77085;SDS011;66014;53.134;18.006;2023-08-07T02:10:47;0.60;;;0.40;;
77085;SDS011;66014;53.134;18.006;2023-08-07T02:13:14;1.40;;;0.60;;
77085;SDS011;66014;53.134;18.006;2023-08-07T02:15:40;2.00;;;0.80;;
77085;SDS011;66014;53.134;18.006;2023-08-07T02:18:07;1.20;;;0.60;;
77085;SDS011;66014;53.134;18.006;2023-08-07T02:20:33;1.30;;;0.70;;
77085;SDS011;66014;53.134;18.006;2023-08-07T02:23:00;1.10;;;0.50;;
77085;SDS011;66014;53.134;18.006;2023-08-07T02:25:27;1.90;;;0.80;;
77085;SDS011;66014;53.134;18.006;2023-08-07T02:27:53;5.20;;;2.20;;
77085;SDS011;66014;53.134;18.006;2023-08-07T02:30:19;3.10;;;1.10;;
77085;SDS011;66014;53.134;18.006;2023-08-07T02:32:46;1.50;;;0.70;;
77085;SDS011;66014;53.134;18.006;2023-08-07T02:35:13;1.20;;;0.60;;
77085;SDS011;66014;53.134;18.006;2023-08-07T02:37:39;1.40;;;0.60;;
77085;SDS011;66014;53.134;18.006;2023-08-07T02:40:06;1.10;;;0.70;;
77085;SDS011;66014;53.134;18.006;2023-08-07T02:42:33;1.50;;;0.70;;
77085;SDS011;66014;53.134;18.006;2023-08-07T02:44:59;1.80;;;0.60;;
77085;SDS011;66014;53.134;18.006;2023-08-07T02:47:26;1.10;;;0.50;;
77085;SDS011;66014;53.134;18.006;2023-08-07T02:49:52;1.80;;;0.50;;
77085;SDS011;66014;53.134;18.006;2023-08-07T02:52:19;1.50;;;0.70;;
77085;SDS011;66014;53.134;18.006;2023-08-07T02:54:46;1.40;;;0.70;;
77085;SDS011;66014;53.134;18.006;2023-08-07T02:57:37;1.00;;;0.50;;
77085;SDS011;66014;53.134;18.006;2023-08-07T03:04:12;2.10;;;0.60;;
77085;SDS011;66014;53.134;18.006;2023-08-07T03:06:40;1.60;;;0.60;;
77085;SDS011;66014;53.134;18.006;2023-08-07T03:09:07;1.00;;;0.50;;
77085;SDS011;66014;53.134;18.006;2023-08-07T03:11:35;1.00;;;0.60;;
77085;SDS011;66014;53.134;18.006;2023-08-07T03:14:04;2.00;;;0.60;;
77085;SDS011;66014;53.134;18.006;2023-08-07T03:19:08;1.10;;;0.40;;
77085;SDS011;66014;53.134;18.006;2023-08-07T03:36:42;3.40;;;0.90;;
77085;SDS011;66014;53.134;18.006;2023-08-07T03:39:37;2.00;;;1.20;;
77085;SDS011;66014;53.134;18.006;2023-08-07T03:45:22;2.70;;;0.90;;
77085;SDS011;66014;53.134;18.006;2023-08-07T03:48:10;1.70;;;0.80;;
77085;SDS011;66014;53.134;18.006;2023-08-07T03:58:14;0.90;;;0.50;;
77085;SDS011;66014;53.134;18.006;2023-08-07T04:00:41;1.50;;;0.70;;
77085;SDS011;66014;53.134;18.006;2023-08-07T04:06:23;2.10;;;0.90;;
77085;SDS011;66014;53.134;18.006;2023-08-07T04:08:53;1.10;;;0.60;;
77085;SDS011;66014;53.134;18.006;2023-08-07T04:11:22;1.70;;;0.70;;
77085;SDS011;66014;53.134;18.006;2023-08-07T04:13:48;1.50;;;0.80;;
77085;SDS011;66014;53.134;18.006;2023-08-07T04:16:33;1.70;;;0.80;;
77085;SDS011;66014;53.134;18.006;2023-08-07T04:19:02;1.30;;;0.70;;
77085;SDS011;66014;53.134;18.006;2023-08-07T04:21:38;2.70;;;1.10;;
77085;SDS011;66014;53.134;18.006;2023-08-07T04:24:27;1.50;;;0.80;;
77085;SDS011;66014;53.134;18.006;2023-08-07T04:26:54;2.20;;;0.80;;
77085;SDS011;66014;53.134;18.006;2023-08-07T04:29:20;1.90;;;0.90;;
77085;SDS011;66014;53.134;18.006;2023-08-07T04:31:50;1.70;;;0.70;;
77085;SDS011;66014;53.134;18.006;2023-08-07T04:34:22;2.20;;;0.70;;
77085;SDS011;66014;53.134;18.006;2023-08-07T04:36:49;2.30;;;0.80;;
77085;SDS011;66014;53.134;18.006;2023-08-07T04:42:45;1.90;;;0.80;;
77085;SDS011;66014;53.134;18.006;2023-08-07T04:48:13;1.70;;;0.80;;
77085;SDS011;66014;53.134;18.006;2023-08-07T04:58:15;2.90;;;1.00;;
77085;SDS011;66014;53.134;18.006;2023-08-07T05:01:00;2.80;;;0.80;;
77085;SDS011;66014;53.134;18.006;2023-08-07T05:03:36;1.40;;;0.70;;
77085;SDS011;66014;53.134;18.006;2023-08-07T05:06:15;1.60;;;0.70;;
77085;SDS011;66014;53.134;18.006;2023-08-07T05:12:22;2.00;;;0.90;;
77085;SDS011;66014;53.134;18.006;2023-08-07T05:14:49;2.10;;;1.10;;
77085;SDS011;66014;53.134;18.006;2023-08-07T05:17:25;1.90;;;0.90;;
77085;SDS011;66014;53.134;18.006;2023-08-07T05:20:01;1.80;;;1.00;;
77085;SDS011;66014;53.134;18.006;2023-08-07T05:46:25;2.50;;;1.10;;
77085;SDS011;66014;53.134;18.006;2023-08-07T05:48:52;2.30;;;1.00;;
77085;SDS011;66014;53.134;18.006;2023-08-07T05:51:17;4.60;;;1.10;;
77085;SDS011;66014;53.134;18.006;2023-08-07T05:53:45;2.40;;;1.10;;
77085;SDS011;66014;53.134;18.006;2023-08-07T05:56:10;2.80;;;1.50;;
77085;SDS011;66014;53.134;18.006;2023-08-07T05:58:36;2.50;;;1.20;;
77085;SDS011;66014;53.134;18.006;2023-08-07T06:01:02;2.10;;;1.20;;
77085;SDS011;66014;53.134;18.006;2023-08-07T06:03:28;4.50;;;1.50;;
77085;SDS011;66014;53.134;18.006;2023-08-07T06:05:54;2.50;;;1.10;;
77085;SDS011;66014;53.134;18.006;2023-08-07T06:08:20;4.60;;;1.30;;
77085;SDS011;66014;53.134;18.006;2023-08-07T06:10:46;2.70;;;1.20;;
77085;SDS011;66014;53.134;18.006;2023-08-07T06:13:12;3.30;;;1.40;;
77085;SDS011;66014;53.134;18.006;2023-08-07T06:15:39;2.40;;;1.00;;
77085;SDS011;66014;53.134;18.006;2023-08-07T06:18:05;1.90;;;1.00;;
77085;SDS011;66014;53.134;18.006;2023-08-07T06:20:31;2.70;;;1.30;;
77085;SDS011;66014;53.134;18.006;2023-08-07T06:22:56;3.30;;;1.30;;
77085;SDS011;66014;53.134;18.006;2023-08-07T06:25:22;4.00;;;1.40;;
77085;SDS011;66014;53.134;18.006;2023-08-07T06:27:49;2.40;;;1.30;;
77085;SDS011;66014;53.134;18.006;2023-08-07T06:30:15;3.30;;;1.30;;
77085;SDS011;66014;53.134;18.006;2023-08-07T06:32:41;2.20;;;1.30;;
77085;SDS011;66014;53.134;18.006;2023-08-07T06:35:07;3.40;;;1.30;;
77085;SDS011;66014;53.134;18.006;2023-08-07T06:37:34;2.60;;;1.30;;
77085;SDS011;66014;53.134;18.006;2023-08-07T06:39:59;3.80;;;1.50;;
77085;SDS011;66014;53.134;18.006;2023-08-07T06:42:25;2.50;;;1.20;;
77085;SDS011;66014;53.134;18.006;2023-08-07T06:44:51;3.30;;;1.40;;
77085;SDS011;66014;53.134;18.006;2023-08-07T06:47:18;2.90;;;1.30;;
77085;SDS011;66014;53.134;18.006;2023-08-07T06:49:44;2.80;;;1.60;;
77085;SDS011;66014;53.134;18.006;2023-08-07T06:52:09;3.10;;;1.40;;
77085;SDS011;66014;53.134;18.006;2023-08-07T06:54:35;3.40;;;1.30;;
77085;SDS011;66014;53.134;18.006;2023-08-07T06:57:01;4.00;;;1.40;;
77085;SDS011;66014;53.134;18.006;2023-08-07T06:59:27;2.40;;;1.40;;
77085;SDS011;66014;53.134;18.006;2023-08-07T07:01:56;2.70;;;1.00;;
77085;SDS011;66014;53.134;18.006;2023-08-07T07:04:30;2.70;;;1.30;;
77085;SDS011;66014;53.134;18.006;2023-08-07T07:06:56;3.90;;;1.50;;
77085;SDS011;66014;53.134;18.006;2023-08-07T07:09:22;1.90;;;0.90;;
77085;SDS011;66014;53.134;18.006;2023-08-07T07:11:50;2.40;;;0.90;;
77085;SDS011;66014;53.134;18.006;2023-08-07T07:14:16;3.30;;;1.20;;
77085;SDS011;66014;53.134;18.006;2023-08-07T07:16:42;2.20;;;1.00;;
77085;SDS011;66014;53.134;18.006;2023-08-07T07:19:08;2.50;;;1.40;;
77085;SDS011;66014;53.134;18.006;2023-08-07T07:21:35;4.70;;;1.30;;
77085;SDS011;66014;53.134;18.006;2023-08-07T07:24:01;2.50;;;1.30;;
77085;SDS011;66014;53.134;18.006;2023-08-07T07:26:28;4.10;;;1.30;;
77085;SDS011;66014;53.134;18.006;2023-08-07T07:28:54;4.30;;;1.40;;
77085;SDS011;66014;53.134;18.006;2023-08-07T07:31:20;2.60;;;1.20;;
77085;SDS011;66014;53.134;18.006;2023-08-07T07:33:49;2.10;;;1.10;;
77085;SDS011;66014;53.134;18.006;2023-08-07T07:36:15;3.20;;;1.10;;
77085;SDS011;66014;53.134;18.006;2023-08-07T07:38:45;2.10;;;1.10;;
77085;SDS011;66014;53.134;18.006;2023-08-07T07:43:41;5.80;;;1.10;;
77085;SDS011;66014;53.134;18.006;2023-08-07T07:46:07;3.20;;;1.40;;
77085;SDS011;66014;53.134;18.006;2023-08-07T07:48:34;2.50;;;1.00;;
77085;SDS011;66014;53.134;18.006;2023-08-07T07:51:00;2.70;;;1.40;;
77085;SDS011;66014;53.134;18.006;2023-08-07T07:53:28;2.80;;;1.20;;
77085;SDS011;66014;53.134;18.006;2023-08-07T07:55:54;2.00;;;0.90;;
77085;SDS011;66014;53.134;18.006;2023-08-07T07:58:21;4.90;;;1.40;;
77085;SDS011;66014;53.134;18.006;2023-08-07T08:01:52;1.70;;;0.80;;
77085;SDS011;66014;53.134;18.006;2023-08-07T08:04:19;1.80;;;0.90;;
77085;SDS011;66014;53.134;18.006;2023-08-07T08:06:53;3.80;;;1.00;;
77085;SDS011;66014;53.134;18.006;2023-08-07T08:09:19;2.20;;;1.10;;
77085;SDS011;66014;53.134;18.006;2023-08-07T08:12:32;2.80;;;1.20;;
77085;SDS011;66014;53.134;18.006;2023-08-07T08:15:06;2.60;;;1.10;;
77085;SDS011;66014;53.134;18.006;2023-08-07T08:17:45;2.90;;;1.20;;
77085;SDS011;66014;53.134;18.006;2023-08-07T08:20:19;3.80;;;1.40;;
77085;SDS011;66014;53.134;18.006;2023-08-07T08:22:46;4.60;;;1.70;;
77085;SDS011;66014;53.134;18.006;2023-08-07T08:25:14;2.30;;;1.20;;
77085;SDS011;66014;53.134;18.006;2023-08-07T08:27:40;2.90;;;1.20;;
77085;SDS011;66014;53.134;18.006;2023-08-07T08:30:07;3.00;;;1.30;;
77085;SDS011;66014;53.134;18.006;2023-08-07T08:32:37;2.90;;;1.10;;
77085;SDS011;66014;53.134;18.006;2023-08-07T08:35:06;3.50;;;1.40;;
77085;SDS011;66014;53.134;18.006;2023-08-07T08:41:32;4.10;;;1.60;;
77085;SDS011;66014;53.134;18.006;2023-08-07T08:43:59;2.20;;;1.10;;
77085;SDS011;66014;53.134;18.006;2023-08-07T08:46:28;3.30;;;1.20;;
77085;SDS011;66014;53.134;18.006;2023-08-07T08:48:57;2.20;;;1.00;;
77085;SDS011;66014;53.134;18.006;2023-08-07T08:51:27;3.70;;;1.10;;
77085;SDS011;66014;53.134;18.006;2023-08-07T08:53:55;3.70;;;1.20;;
77085;SDS011;66014;53.134;18.006;2023-08-07T08:56:23;3.90;;;1.30;;
77085;SDS011;66014;53.134;18.006;2023-08-07T08:58:50;2.20;;;1.10;;
77085;SDS011;66014;53.134;18.006;2023-08-07T09:01:18;3.00;;;1.00;;
77085;SDS011;66014;53.134;18.006;2023-08-07T09:03:45;3.00;;;1.10;;
77085;SDS011;66014;53.134;18.006;2023-08-07T09:06:12;1.50;;;0.80;;
77085;SDS011;66014;53.134;18.006;2023-08-07T09:08:58;2.20;;;1.00;;
77085;SDS011;66014;53.134;18.006;2023-08-07T09:15:40;2.30;;;1.10;;
77085;SDS011;66014;53.134;18.006;2023-08-07T09:18:58;1.80;;;0.90;;
77085;SDS011;66014;53.134;18.006;2023-08-07T09:22:06;2.80;;;1.00;;
77085;SDS011;66014;53.134;18.006;2023-08-07T09:24:36;1.80;;;0.90;;
77085;SDS011;66014;53.134;18.006;2023-08-07T09:27:11;2.10;;;0.80;;
77085;SDS011;66014;53.134;18.006;2023-08-07T09:29:47;3.90;;;0.90;;
77085;SDS011;66014;53.134;18.006;2023-08-07T09:32:15;3.40;;;1.10;;
77085;SDS011;66014;53.134;18.006;2023-08-07T09:34:42;1.70;;;0.90;;
77085;SDS011;66014;53.134;18.006;2023-08-07T09:37:09;4.10;;;1.30;;
77085;SDS011;66014;53.134;18.006;2023-08-07T09:39:36;2.40;;;1.00;;
77085;SDS011;66014;53.134;18.006;2023-08-07T09:42:04;1.80;;;1.00;;
77085;SDS011;66014;53.134;18.006;2023-08-07T09:44:36;1.90;;;0.90;;
77085;SDS011;66014;53.134;18.006;2023-08-07T09:47:18;2.20;;;1.00;;
77085;SDS011;66014;53.134;18.006;2023-08-07T09:49:47;3.30;;;1.00;;
77085;SDS011;66014;53.134;18.006;2023-08-07T09:52:14;2.90;;;0.90;;
77085;SDS011;66014;53.134;18.006;2023-08-07T09:54:42;1.90;;;0.90;;
77085;SDS011;66014;53.134;18.006;2023-08-07T09:57:09;2.10;;;1.00;;
77085;SDS011;66014;53.134;18.006;2023-08-07T09:59:36;2.40;;;1.00;;
77085;SDS011;66014;53.134;18.006;2023-08-07T10:02:03;1.80;;;0.80;;
77085;SDS011;66014;53.134;18.006;2023-08-07T10:04:37;2.40;;;1.00;;
77085;SDS011;66014;53.134;18.006;2023-08-07T10:07:31;3.20;;;1.10;;
77085;SDS011;66014;53.134;18.006;2023-08-07T10:09:58;1.70;;;0.80;;
77085;SDS011;66014;53.134;18.006;2023-08-07T10:12:26;3.50;;;1.20;;
77085;SDS011;66014;53.134;18.006;2023-08-07T10:14:54;2.10;;;1.10;;
77085;SDS011;66014;53.134;18.006;2023-08-07T10:17:21;2.90;;;1.00;;
77085;SDS011;66014;53.134;18.006;2023-08-07T10:19:59;2.60;;;0.80;;
77085;SDS011;66014;53.134;18.006;2023-08-07T10:22:27;2.10;;;1.00;;
77085;SDS011;66014;53.134;18.006;2023-08-07T10:24:58;4.20;;;1.20;;
77085;SDS011;66014;53.134;18.006;2023-08-07T10:27:29;3.20;;;1.20;;
77085;SDS011;66014;53.134;18.006;2023-08-07T10:29:59;3.30;;;1.10;;
77085;SDS011;66014;53.134;18.006;2023-08-07T10:32:29;3.30;;;1.20;;
77085;SDS011;66014;53.134;18.006;2023-08-07T10:34:56;4.20;;;1.50;;
77085;SDS011;66014;53.134;18.006;2023-08-07T10:37:39;2.60;;;1.30;;
77085;SDS011;66014;53.134;18.006;2023-08-07T10:40:09;2.40;;;1.00;;
77085;SDS011;66014;53.134;18.006;2023-08-07T10:45:27;2.60;;;1.30;;
77085;SDS011;66014;53.134;18.006;2023-08-07T10:48:01;3.70;;;1.20;;
77085;SDS011;66014;53.134;18.006;2023-08-07T10:50:30;3.30;;;1.40;;
77085;SDS011;66014;53.134;18.006;2023-08-07T10:53:00;2.80;;;1.60;;
77085;SDS011;66014;53.134;18.006;2023-08-07T10:55:46;4.70;;;1.70;;
77085;SDS011;66014;53.134;18.006;2023-08-07T10:58:25;2.10;;;1.30;;
77085;SDS011;66014;53.134;18.006;2023-08-07T11:03:43;3.20;;;1.30;;
77085;SDS011;66014;53.134;18.006;2023-08-07T11:06:52;3.10;;;1.50;;
77085;SDS011;66014;53.134;18.006;2023-08-07T11:09:19;3.30;;;1.60;;
77085;SDS011;66014;53.134;18.006;2023-08-07T11:11:48;4.40;;;1.40;;
77085;SDS011;66014;53.134;18.006;2023-08-07T11:14:15;2.60;;;1.30;;
77085;SDS011;66014;53.134;18.006;2023-08-07T11:16:43;2.80;;;1.20;;
77085;SDS011;66014;53.134;18.006;2023-08-07T11:19:11;2.80;;;1.40;;
77085;SDS011;66014;53.134;18.006;2023-08-07T11:21:42;3.80;;;1.50;;
77085;SDS011;66014;53.134;18.006;2023-08-07T11:24:13;2.90;;;1.30;;
77085;SDS011;66014;53.134;18.006;2023-08-07T11:26:44;3.00;;;1.40;;
77085;SDS011;66014;53.134;18.006;2023-08-07T11:29:16;4.40;;;1.40;;
77085;SDS011;66014;53.134;18.006;2023-08-07T11:31:44;2.30;;;1.00;;
77085;SDS011;66014;53.134;18.006;2023-08-07T11:34:13;2.10;;;1.30;;
77085;SDS011;66014;53.134;18.006;2023-08-07T11:36:43;3.80;;;1.50;;
77085;SDS011;66014;53.134;18.006;2023-08-07T11:39:10;3.10;;;1.30;;
77085;SDS011;66014;53.134;18.006;2023-08-07T11:41:40;2.50;;;1.30;;
77085;SDS011;66014;53.134;18.006;2023-08-07T11:48:18;2.70;;;1.40;;
77085;SDS011;66014;53.134;18.006;2023-08-07T11:50:56;2.50;;;1.40;;
77085;SDS011;66014;53.134;18.006;2023-08-07T11:53:25;4.50;;;1.50;;
77085;SDS011;66014;53.134;18.006;2023-08-07T11:59:58;2.70;;;1.10;;
77085;SDS011;66014;53.134;18.006;2023-08-07T12:02:25;3.40;;;1.10;;
77085;SDS011;66014;53.134;18.006;2023-08-07T12:04:58;2.80;;;1.30;;
77085;SDS011;66014;53.134;18.006;2023-08-07T12:07:26;4.30;;;1.40;;
77085;SDS011;66014;53.134;18.006;2023-08-07T12:09:54;4.80;;;1.90;;
77085;SDS011;66014;53.134;18.006;2023-08-07T12:12:23;2.40;;;1.30;;
77085;SDS011;66014;53.134;18.006;2023-08-07T12:14:54;5.20;;;1.40;;
77085;SDS011;66014;53.134;18.006;2023-08-07T12:17:22;5.20;;;1.40;;
77085;SDS011;66014;53.134;18.006;2023-08-07T12:19:49;2.80;;;1.00;;
77085;SDS011;66014;53.134;18.006;2023-08-07T12:22:19;2.30;;;1.20;;
77085;SDS011;66014;53.134;18.006;2023-08-07T12:25:04;2.40;;;1.10;;
77085;SDS011;66014;53.134;18.006;2023-08-07T12:30:15;2.30;;;1.20;;
77085;SDS011;66014;53.134;18.006;2023-08-07T12:32:44;2.60;;;1.00;;
77085;SDS011;66014;53.134;18.006;2023-08-07T12:35:11;3.00;;;1.20;;
77085;SDS011;66014;53.134;18.006;2023-08-07T12:37:37;2.40;;;1.30;;
77085;SDS011;66014;53.134;18.006;2023-08-07T12:40:04;4.40;;;1.50;;
77085;SDS011;66014;53.134;18.006;2023-08-07T12:42:32;2.60;;;1.20;;
77085;SDS011;66014;53.134;18.006;2023-08-07T12:45:03;3.00;;;1.20;;
77085;SDS011;66014;53.134;18.006;2023-08-07T12:47:30;2.80;;;1.10;;
77085;SDS011;66014;53.134;18.006;2023-08-07T12:49:59;2.90;;;1.20;;
77085;SDS011;66014;53.134;18.006;2023-08-07T12:52:26;3.10;;;1.30;;
77085;SDS011;66014;53.134;18.006;2023-08-07T12:54:53;2.50;;;1.30;;
77085;SDS011;66014;53.134;18.006;2023-08-07T12:57:19;2.30;;;1.10;;
77085;SDS011;66014;53.134;18.006;2023-08-07T12:59:46;2.20;;;1.00;;
77085;SDS011;66014;53.134;18.006;2023-08-07T13:02:13;3.50;;;1.50;;
77085;SDS011;66014;53.134;18.006;2023-08-07T13:04:40;2.30;;;1.10;;
77085;SDS011;66014;53.134;18.006;2023-08-07T13:07:07;4.60;;;1.20;;
77085;SDS011;66014;53.134;18.006;2023-08-07T13:09:47;4.10;;;1.40;;
77085;SDS011;66014;53.134;18.006;2023-08-07T13:12:14;2.70;;;1.30;;
77085;SDS011;66014;53.134;18.006;2023-08-07T13:29:15;3.30;;;1.50;;
77085;SDS011;66014;53.134;18.006;2023-08-07T13:35:01;3.90;;;1.40;;
77085;SDS011;66014;53.134;18.006;2023-08-07T13:37:28;2.40;;;1.20;;
77085;SDS011;66014;53.134;18.006;2023-08-07T13:39:55;2.90;;;1.10;;
77085;SDS011;66014;53.134;18.006;2023-08-07T13:42:24;2.90;;;1.30;;
77085;SDS011;66014;53.134;18.006;2023-08-07T13:44:52;4.50;;;1.40;;
77085;SDS011;66014;53.134;18.006;2023-08-07T13:47:19;7.70;;;2.50;;
77085;SDS011;66014;53.134;18.006;2023-08-07T13:49:46;6.10;;;3.80;;
77085;SDS011;66014;53.134;18.006;2023-08-07T13:52:14;4.60;;;2.30;;
77085;SDS011;66014;53.134;18.006;2023-08-07T13:54:41;5.10;;;1.50;;
77085;SDS011;66014;53.134;18.006;2023-08-07T13:57:08;4.10;;;1.70;;
77085;SDS011;66014;53.134;18.006;2023-08-07T13:59:35;3.30;;;1.40;;
77085;SDS011;66014;53.134;18.006;2023-08-07T14:02:01;3.40;;;1.40;;
77085;SDS011;66014;53.134;18.006;2023-08-07T14:04:28;3.00;;;1.30;;
77085;SDS011;66014;53.134;18.006;2023-08-07T14:06:54;2.90;;;1.20;;
77085;SDS011;66014;53.134;18.006;2023-08-07T14:09:21;4.60;;;1.30;;
77085;SDS011;66014;53.134;18.006;2023-08-07T14:11:48;2.40;;;1.20;;
77085;SDS011;66014;53.134;18.006;2023-08-07T14:14:15;2.80;;;1.10;;
77085;SDS011;66014;53.134;18.006;2023-08-07T14:16:43;5.40;;;1.40;;
77085;SDS011;66014;53.134;18.006;2023-08-07T14:19:09;3.20;;;1.80;;
77085;SDS011;66014;53.134;18.006;2023-08-07T14:21:36;4.30;;;1.30;;
77085;SDS011;66014;53.134;18.006;2023-08-07T14:24:03;3.40;;;1.10;;
77085;SDS011;66014;53.134;18.006;2023-08-07T14:26:31;6.30;;;1.50;;
77085;SDS011;66014;53.134;18.006;2023-08-07T14:28:59;4.50;;;1.10;;
77085;SDS011;66014;53.134;18.006;2023-08-07T14:31:26;4.80;;;1.30;;
77085;SDS011;66014;53.134;18.006;2023-08-07T14:33:53;2.60;;;1.10;;
77085;SDS011;66014;53.134;18.006;2023-08-07T14:36:19;4.00;;;1.20;;
77085;SDS011;66014;53.134;18.006;2023-08-07T14:38:46;3.30;;;1.10;;
77085;SDS011;66014;53.134;18.006;2023-08-07T14:41:17;3.00;;;1.20;;
77085;SDS011;66014;53.134;18.006;2023-08-07T14:43:44;2.70;;;1.20;;
77085;SDS011;66014;53.134;18.006;2023-08-07T14:46:15;5.20;;;1.50;;
77085;SDS011;66014;53.134;18.006;2023-08-07T14:48:51;2.70;;;1.10;;
77085;SDS011;66014;53.134;18.006;2023-08-07T14:51:21;4.80;;;1.10;;
77085;SDS011;66014;53.134;18.006;2023-08-07T14:53:48;3.30;;;1.10;;
77085;SDS011;66014;53.134;18.006;2023-08-07T14:56:15;4.50;;;1.50;;
77085;SDS011;66014;53.134;18.006;2023-08-07T14:58:41;4.60;;;1.40;;
77085;SDS011;66014;53.134;18.006;2023-08-07T15:01:08;4.00;;;1.30;;
77085;SDS011;66014;53.134;18.006;2023-08-07T15:03:36;2.60;;;1.10;;
77085;SDS011;66014;53.134;18.006;2023-08-07T15:06:02;4.00;;;1.30;;
77085;SDS011;66014;53.134;18.006;2023-08-07T15:08:29;4.00;;;1.10;;
77085;SDS011;66014;53.134;18.006;2023-08-07T15:11:00;3.30;;;1.20;;
77085;SDS011;66014;53.134;18.006;2023-08-07T15:13:27;4.10;;;1.50;;
77085;SDS011;66014;53.134;18.006;2023-08-07T15:15:54;4.10;;;1.10;;
77085;SDS011;66014;53.134;18.006;2023-08-07T15:18:20;4.80;;;1.30;;
77085;SDS011;66014;53.134;18.006;2023-08-07T15:20:47;3.20;;;1.30;;
77085;SDS011;66014;53.134;18.006;2023-08-07T15:23:15;4.10;;;1.30;;
77085;SDS011;66014;53.134;18.006;2023-08-07T15:25:42;2.80;;;1.20;;
77085;SDS011;66014;53.134;18.006;2023-08-07T15:28:10;3.60;;;1.30;;
77085;SDS011;66014;53.134;18.006;2023-08-07T15:30:38;4.10;;;1.50;;
77085;SDS011;66014;53.134;18.006;2023-08-07T15:33:06;3.00;;;1.20;;
77085;SDS011;66014;53.134;18.006;2023-08-07T15:35:33;3.40;;;1.40;;
77085;SDS011;66014;53.134;18.006;2023-08-07T15:38:00;3.80;;;1.40;;
77085;SDS011;66014;53.134;18.006;2023-08-07T15:40:26;3.80;;;1.30;;
77085;SDS011;66014;53.134;18.006;2023-08-07T15:42:56;3.40;;;1.50;;
77085;SDS011;66014;53.134;18.006;2023-08-07T15:45:24;3.80;;;1.40;;
77085;SDS011;66014;53.134;18.006;2023-08-07T15:47:51;2.90;;;1.30;;
77085;SDS011;66014;53.134;18.006;2023-08-07T15:50:20;5.30;;;1.80;;
77085;SDS011;66014;53.134;18.006;2023-08-07T15:52:47;4.90;;;1.40;;
77085;SDS011;66014;53.134;18.006;2023-08-07T15:55:13;6.20;;;1.70;;
77085;SDS011;66014;53.134;18.006;2023-08-07T15:57:41;2.80;;;1.50;;
77085;SDS011;66014;53.134;18.006;2023-08-07T16:00:09;2.70;;;1.30;;
77085;SDS011;66014;53.134;18.006;2023-08-07T16:02:36;3.00;;;1.40;;
77085;SDS011;66014;53.134;18.006;2023-08-07T16:05:08;3.00;;;1.20;;
77085;SDS011;66014;53.134;18.006;2023-08-07T16:07:37;4.70;;;1.50;;
77085;SDS011;66014;53.134;18.006;2023-08-07T16:10:03;5.80;;;1.60;;
77085;SDS011;66014;53.134;18.006;2023-08-07T16:12:32;4.40;;;1.70;;
77085;SDS011;66014;53.134;18.006;2023-08-07T16:14:59;2.90;;;1.40;;
77085;SDS011;66014;53.134;18.006;2023-08-07T16:17:27;4.10;;;1.60;;
77085;SDS011;66014;53.134;18.006;2023-08-07T16:19:55;3.80;;;1.80;;
77085;SDS011;66014;53.134;18.006;2023-08-07T16:22:22;4.30;;;1.50;;
77085;SDS011;66014;53.134;18.006;2023-08-07T16:24:48;3.90;;;1.60;;
77085;SDS011;66014;53.134;18.006;2023-08-07T16:27:15;4.70;;;1.80;;
77085;SDS011;66014;53.134;18.006;2023-08-07T16:29:42;6.30;;;1.70;;
77085;SDS011;66014;53.134;18.006;2023-08-07T16:32:09;5.30;;;1.70;;
77085;SDS011;66014;53.134;18.006;2023-08-07T16:34:39;3.80;;;1.40;;
77085;SDS011;66014;53.134;18.006;2023-08-07T16:37:06;4.10;;;1.70;;
77085;SDS011;66014;53.134;18.006;2023-08-07T16:39:33;6.20;;;1.70;;
77085;SDS011;66014;53.134;18.006;2023-08-07T16:42:00;3.00;;;1.50;;
77085;SDS011;66014;53.134;18.006;2023-08-07T16:44:26;5.40;;;1.80;;
77085;SDS011;66014;53.134;18.006;2023-08-07T16:46:53;4.40;;;1.80;;
77085;SDS011;66014;53.134;18.006;2023-08-07T16:49:20;3.80;;;1.50;;
77085;SDS011;66014;53.134;18.006;2023-08-07T16:51:46;2.90;;;1.40;;
77085;SDS011;66014;53.134;18.006;2023-08-07T16:54:13;4.10;;;1.50;;
77085;SDS011;66014;53.134;18.006;2023-08-07T16:56:40;4.40;;;1.70;;
77085;SDS011;66014;53.134;18.006;2023-08-07T16:59:07;5.20;;;1.70;;
77085;SDS011;66014;53.134;18.006;2023-08-07T17:01:34;5.10;;;1.60;;
77085;SDS011;66014;53.134;18.006;2023-08-07T17:04:00;6.30;;;1.90;;
77085;SDS011;66014;53.134;18.006;2023-08-07T17:06:27;4.80;;;2.50;;
77085;SDS011;66014;53.134;18.006;2023-08-07T17:08:54;5.30;;;2.20;;